sensor_id;sensor_type;location;lat;lon;timestamp;temperature;humidity
8463;DHT22;4268;52.506;13.462;2022-09-13T00:01:45;14.40;99.90
8463;DHT22;4268;52.506;13.462;2022-09-13T00:04:10;14.40;99.90
8463;DHT22;4268;52.506;13.462;2022-09-13T00:06:36;14.40;99.90
8463;DHT22;4268;52.506;13.462;2022-09-13T00:09:01;14.40;99.90
8463;DHT22;4268;52.506;13.462;2022-09-13T00:11:28;14.40;99.90
8463;DHT22;4268;52.506;13.462;2022-09-13T00:13:55;14.40;99.90
8463;DHT22;4268;52.506;13.462;2022-09-13T00:16:24;14.30;99.90
8463;DHT22;4268;52.506;13.462;2022-09-13T00:18:50;14.30;99.90
8463;DHT22;4268;52.506;13.462;2022-09-13T00:21:18;14.30;99.90
8463;DHT22;4268;52.506;13.462;2022-09-13T00:23:47;14.30;99.90
8463;DHT22;4268;52.506;13.462;2022-09-13T00:26:15;14.40;99.90
8463;DHT22;4268;52.506;13.462;2022-09-13T00:28:42;14.30;99.90
8463;DHT22;4268;52.506;13.462;2022-09-13T00:31:10;14.30;99.90
8463;DHT22;4268;52.506;13.462;2022-09-13T00:33:36;14.30;99.90
8463;DHT22;4268;52.506;13.462;2022-09-13T00:36:04;14.30;99.90
8463;DHT22;4268;52.506;13.462;2022-09-13T00:38:30;14.20;99.90
8463;DHT22;4268;52.506;13.462;2022-09-13T00:40:56;14.20;99.90
8463;DHT22;4268;52.506;13.462;2022-09-13T00:43:41;14.20;99.90
8463;DHT22;4268;52.506;13.462;2022-09-13T00:46:07;14.20;99.90
8463;DHT22;4268;52.506;13.462;2022-09-13T00:48:33;14.20;99.90
8463;DHT22;4268;52.506;13.462;2022-09-13T00:51:01;14.20;99.90
8463;DHT22;4268;52.506;13.462;2022-09-13T00:53:32;14.10;99.90
8463;DHT22;4268;52.506;13.462;2022-09-13T00:56:20;14.20;99.90
8463;DHT22;4268;52.506;13.462;2022-09-13T00:58:59;14.20;99.90
8463;DHT22;4268;52.506;13.462;2022-09-13T01:01:31;14.10;99.90
8463;DHT22;4268;52.506;13.462;2022-09-13T01:03:58;14.20;99.90
8463;DHT22;4268;52.506;13.462;2022-09-13T01:06:26;14.10;99.90
8463;DHT22;4268;52.506;13.462;2022-09-13T01:08:58;14.10;99.90
8463;DHT22;4268;52.506;13.462;2022-09-13T01:11:46;14.00;99.90
8463;DHT22;4268;52.506;13.462;2022-09-13T01:14:16;14.00;99.90
8463;DHT22;4268;52.506;13.462;2022-09-13T01:16:42;14.00;99.90
8463;DHT22;4268;52.506;13.462;2022-09-13T01:19:07;14.00;99.90
8463;DHT22;4268;52.506;13.462;2022-09-13T01:22:01;14.00;99.90
8463;DHT22;4268;52.506;13.462;2022-09-13T01:32:46;13.90;99.90
8463;DHT22;4268;52.506;13.462;2022-09-13T01:35:32;13.90;99.90
8463;DHT22;4268;52.506;13.462;2022-09-13T01:38:14;13.80;99.90
8463;DHT22;4268;52.506;13.462;2022-09-13T01:41:05;13.80;99.90
8463;DHT22;4268;52.506;13.462;2022-09-13T01:43:51;13.80;99.90
8463;DHT22;4268;52.506;13.462;2022-09-13T01:49:21;13.80;99.90
8463;DHT22;4268;52.506;13.462;2022-09-13T01:51:55;13.80;99.90
8463;DHT22;4268;52.506;13.462;2022-09-13T01:54:42;13.80;99.90
8463;DHT22;4268;52.506;13.462;2022-09-13T01:57:30;13.80;99.90
8463;DHT22;4268;52.506;13.462;2022-09-13T02:00:09;13.80;99.90
8463;DHT22;4268;52.506;13.462;2022-09-13T02:02:44;13.80;99.90
8463;DHT22;4268;52.506;13.462;2022-09-13T02:05:30;13.70;99.90
8463;DHT22;4268;52.506;13.462;2022-09-13T02:08:03;13.80;99.90
8463;DHT22;4268;52.506;13.462;2022-09-13T02:11:08;13.70;99.90
8463;DHT22;4268;52.506;13.462;2022-09-13T02:13:45;13.80;99.90
8463;DHT22;4268;52.506;13.462;2022-09-13T02:16:17;13.70;99.90
8463;DHT22;4268;52.506;13.462;2022-09-13T02:18:51;13.70;99.90
8463;DHT22;4268;52.506;13.462;2022-09-13T02:21:23;13.70;99.90
8463;DHT22;4268;52.506;13.462;2022-09-13T02:23:54;13.70;99.90
8463;DHT22;4268;52.506;13.462;2022-09-13T02:26:23;13.60;99.90
8463;DHT22;4268;52.506;13.462;2022-09-13T02:28:54;13.60;99.90
8463;DHT22;4268;52.506;13.462;2022-09-13T02:31:27;13.60;99.90
8463;DHT22;4268;52.506;13.462;2022-09-13T02:33:57;13.60;99.90
8463;DHT22;4268;52.506;13.462;2022-09-13T02:36:31;13.60;99.90
8463;DHT22;4268;52.506;13.462;2022-09-13T02:39:09;13.60;99.90
8463;DHT22;4268;52.506;13.462;2022-09-13T02:42:07;13.50;99.90
8463;DHT22;4268;52.506;13.462;2022-09-13T02:44:40;13.50;99.90
8463;DHT22;4268;52.506;13.462;2022-09-13T02:47:15;13.60;99.90
8463;DHT22;4268;52.506;13.462;2022-09-13T02:50:04;13.60;99.90
8463;DHT22;4268;52.506;13.462;2022-09-13T02:57:37;13.60;99.90
8463;DHT22;4268;52.506;13.462;2022-09-13T03:00:05;13.60;99.90
8463;DHT22;4268;52.506;13.462;2022-09-13T03:02:32;13.60;99.90
8463;DHT22;4268;52.506;13.462;2022-09-13T03:04:59;13.60;99.90
8463;DHT22;4268;52.506;13.462;2022-09-13T03:07:25;13.60;99.90
8463;DHT22;4268;52.506;13.462;2022-09-13T03:09:54;13.50;99.90
8463;DHT22;4268;52.506;13.462;2022-09-13T03:12:29;13.60;99.90
8463;DHT22;4268;52.506;13.462;2022-09-13T03:15:09;13.60;99.90
8463;DHT22;4268;52.506;13.462;2022-09-13T03:17:59;13.60;99.90
8463;DHT22;4268;52.506;13.462;2022-09-13T03:23:39;13.60;99.90
8463;DHT22;4268;52.506;13.462;2022-09-13T03:26:35;13.60;99.90
8463;DHT22;4268;52.506;13.462;2022-09-13T03:34:39;13.50;99.90
8463;DHT22;4268;52.506;13.462;2022-09-13T03:37:22;13.40;99.90
8463;DHT22;4268;52.506;13.462;2022-09-13T03:39:55;13.40;99.90
8463;DHT22;4268;52.506;13.462;2022-09-13T03:45:08;13.40;99.90
8463;DHT22;4268;52.506;13.462;2022-09-13T03:47:36;13.40;99.90
8463;DHT22;4268;52.506;13.462;2022-09-13T03:50:06;13.40;99.90
8463;DHT22;4268;52.506;13.462;2022-09-13T03:52:33;13.40;99.90
8463;DHT22;4268;52.506;13.462;2022-09-13T03:54:59;13.40;99.90
8463;DHT22;4268;52.506;13.462;2022-09-13T03:57:24;13.70;99.90
8463;DHT22;4268;52.506;13.462;2022-09-13T03:59:54;13.40;99.90
8463;DHT22;4268;52.506;13.462;2022-09-13T04:02:22;13.40;99.90
8463;DHT22;4268;52.506;13.462;2022-09-13T04:04:48;13.40;99.90
8463;DHT22;4268;52.506;13.462;2022-09-13T04:07:23;13.50;99.90
8463;DHT22;4268;52.506;13.462;2022-09-13T04:09:49;13.60;99.90
8463;DHT22;4268;52.506;13.462;2022-09-13T04:12:16;13.50;99.90
8463;DHT22;4268;52.506;13.462;2022-09-13T04:14:43;13.50;99.90
8463;DHT22;4268;52.506;13.462;2022-09-13T04:17:08;13.50;99.90
8463;DHT22;4268;52.506;13.462;2022-09-13T04:19:34;13.50;99.90
8463;DHT22;4268;52.506;13.462;2022-09-13T04:22:00;13.60;99.90
8463;DHT22;4268;52.506;13.462;2022-09-13T04:24:26;13.60;99.90
8463;DHT22;4268;52.506;13.462;2022-09-13T04:26:53;13.60;99.90
8463;DHT22;4268;52.506;13.462;2022-09-13T04:29:20;13.60;99.90
8463;DHT22;4268;52.506;13.462;2022-09-13T04:31:46;13.70;99.90
8463;DHT22;4268;52.506;13.462;2022-09-13T04:34:12;13.70;99.90
8463;DHT22;4268;52.506;13.462;2022-09-13T04:36:38;13.70;99.90
8463;DHT22;4268;52.506;13.462;2022-09-13T04:39:04;13.70;99.90
8463;DHT22;4268;52.506;13.462;2022-09-13T04:41:30;13.70;99.90
8463;DHT22;4268;52.506;13.462;2022-09-13T04:43:58;13.70;99.90
8463;DHT22;4268;52.506;13.462;2022-09-13T04:46:23;13.70;99.90
8463;DHT22;4268;52.506;13.462;2022-09-13T04:48:49;13.70;99.90
8463;DHT22;4268;52.506;13.462;2022-09-13T04:51:16;13.70;99.90
8463;DHT22;4268;52.506;13.462;2022-09-13T04:53:42;13.70;99.90
8463;DHT22;4268;52.506;13.462;2022-09-13T04:56:09;13.70;99.90
8463;DHT22;4268;52.506;13.462;2022-09-13T04:58:35;13.70;99.90
8463;DHT22;4268;52.506;13.462;2022-09-13T05:01:02;13.80;99.90
8463;DHT22;4268;52.506;13.462;2022-09-13T05:03:31;13.80;99.90
8463;DHT22;4268;52.506;13.462;2022-09-13T05:06:05;13.90;99.90
8463;DHT22;4268;52.506;13.462;2022-09-13T05:08:31;13.90;99.90
8463;DHT22;4268;52.506;13.462;2022-09-13T05:10:57;13.90;99.90
8463;DHT22;4268;52.506;13.462;2022-09-13T05:13:23;14.00;99.90
8463;DHT22;4268;52.506;13.462;2022-09-13T05:15:49;14.10;99.90
8463;DHT22;4268;52.506;13.462;2022-09-13T05:18:14;14.10;99.90
8463;DHT22;4268;52.506;13.462;2022-09-13T05:20:40;14.10;99.90
8463;DHT22;4268;52.506;13.462;2022-09-13T05:23:05;14.10;99.90
8463;DHT22;4268;52.506;13.462;2022-09-13T05:25:31;14.20;99.90
8463;DHT22;4268;52.506;13.462;2022-09-13T05:27:57;14.20;99.90
8463;DHT22;4268;52.506;13.462;2022-09-13T05:30:22;14.30;99.90
8463;DHT22;4268;52.506;13.462;2022-09-13T05:32:48;14.30;99.90
8463;DHT22;4268;52.506;13.462;2022-09-13T05:35:13;14.40;99.90
8463;DHT22;4268;52.506;13.462;2022-09-13T05:37:39;14.40;99.90
8463;DHT22;4268;52.506;13.462;2022-09-13T05:40:05;14.40;99.90
8463;DHT22;4268;52.506;13.462;2022-09-13T05:42:31;14.30;99.90
8463;DHT22;4268;52.506;13.462;2022-09-13T05:44:56;14.40;99.90
8463;DHT22;4268;52.506;13.462;2022-09-13T05:47:22;14.40;99.90
8463;DHT22;4268;52.506;13.462;2022-09-13T05:49:48;14.40;99.90
8463;DHT22;4268;52.506;13.462;2022-09-13T05:52:13;14.40;99.90
8463;DHT22;4268;52.506;13.462;2022-09-13T05:54:39;14.40;99.90
8463;DHT22;4268;52.506;13.462;2022-09-13T05:57:04;14.40;99.90
8463;DHT22;4268;52.506;13.462;2022-09-13T05:59:30;14.40;99.90
8463;DHT22;4268;52.506;13.462;2022-09-13T06:01:56;14.40;99.90
8463;DHT22;4268;52.506;13.462;2022-09-13T06:04:22;14.40;99.90
8463;DHT22;4268;52.506;13.462;2022-09-13T06:06:47;14.50;99.90
8463;DHT22;4268;52.506;13.462;2022-09-13T06:09:13;14.40;99.90
8463;DHT22;4268;52.506;13.462;2022-09-13T06:11:38;14.50;99.90
8463;DHT22;4268;52.506;13.462;2022-09-13T06:14:04;14.50;99.90
8463;DHT22;4268;52.506;13.462;2022-09-13T06:16:29;14.50;99.90
8463;DHT22;4268;52.506;13.462;2022-09-13T06:18:57;14.50;99.90
8463;DHT22;4268;52.506;13.462;2022-09-13T06:21:22;14.50;99.90
8463;DHT22;4268;52.506;13.462;2022-09-13T06:23:49;14.50;99.90
8463;DHT22;4268;52.506;13.462;2022-09-13T06:26:17;14.50;99.90
8463;DHT22;4268;52.506;13.462;2022-09-13T06:28:47;14.50;99.90
8463;DHT22;4268;52.506;13.462;2022-09-13T06:31:14;14.50;99.90
8463;DHT22;4268;52.506;13.462;2022-09-13T06:33:41;14.50;99.90
8463;DHT22;4268;52.506;13.462;2022-09-13T06:36:12;14.50;99.90
8463;DHT22;4268;52.506;13.462;2022-09-13T06:38:43;14.50;99.90
8463;DHT22;4268;52.506;13.462;2022-09-13T06:41:11;14.50;99.90
8463;DHT22;4268;52.506;13.462;2022-09-13T06:43:37;14.60;99.90
8463;DHT22;4268;52.506;13.462;2022-09-13T06:46:07;14.60;99.90
8463;DHT22;4268;52.506;13.462;2022-09-13T06:48:34;14.70;99.90
8463;DHT22;4268;52.506;13.462;2022-09-13T06:51:01;14.80;99.90
8463;DHT22;4268;52.506;13.462;2022-09-13T06:53:27;14.80;99.90
8463;DHT22;4268;52.506;13.462;2022-09-13T06:56:13;15.00;99.90
8463;DHT22;4268;52.506;13.462;2022-09-13T06:58:39;15.10;99.90
8463;DHT22;4268;52.506;13.462;2022-09-13T07:01:06;15.30;99.90
8463;DHT22;4268;52.506;13.462;2022-09-13T07:03:37;15.50;99.90
8463;DHT22;4268;52.506;13.462;2022-09-13T07:06:10;15.60;99.90
8463;DHT22;4268;52.506;13.462;2022-09-13T07:08:37;15.60;99.90
8463;DHT22;4268;52.506;13.462;2022-09-13T07:11:02;15.70;99.90
8463;DHT22;4268;52.506;13.462;2022-09-13T07:13:28;15.80;99.90
8463;DHT22;4268;52.506;13.462;2022-09-13T07:15:54;15.90;99.90
8463;DHT22;4268;52.506;13.462;2022-09-13T07:18:20;15.90;99.90
8463;DHT22;4268;52.506;13.462;2022-09-13T07:20:46;15.90;99.90
8463;DHT22;4268;52.506;13.462;2022-09-13T07:23:11;16.00;99.90
8463;DHT22;4268;52.506;13.462;2022-09-13T07:25:37;16.10;99.90
8463;DHT22;4268;52.506;13.462;2022-09-13T07:28:02;16.10;99.90
8463;DHT22;4268;52.506;13.462;2022-09-13T07:30:28;16.10;99.90
8463;DHT22;4268;52.506;13.462;2022-09-13T07:32:53;16.00;99.90
8463;DHT22;4268;52.506;13.462;2022-09-13T07:35:19;16.00;99.90
8463;DHT22;4268;52.506;13.462;2022-09-13T07:37:44;16.00;99.90
8463;DHT22;4268;52.506;13.462;2022-09-13T07:40:11;16.00;99.90
8463;DHT22;4268;52.506;13.462;2022-09-13T07:42:36;15.90;99.90
8463;DHT22;4268;52.506;13.462;2022-09-13T07:45:02;15.90;99.90
8463;DHT22;4268;52.506;13.462;2022-09-13T07:47:28;16.00;99.90
8463;DHT22;4268;52.506;13.462;2022-09-13T07:49:56;16.00;99.90
8463;DHT22;4268;52.506;13.462;2022-09-13T07:52:22;15.90;99.90
8463;DHT22;4268;52.506;13.462;2022-09-13T07:54:47;16.00;99.90
8463;DHT22;4268;52.506;13.462;2022-09-13T07:57:13;16.10;99.90
8463;DHT22;4268;52.506;13.462;2022-09-13T07:59:38;16.10;99.90
8463;DHT22;4268;52.506;13.462;2022-09-13T08:02:03;16.30;99.90
8463;DHT22;4268;52.506;13.462;2022-09-13T08:04:29;16.40;99.90
8463;DHT22;4268;52.506;13.462;2022-09-13T08:06:55;16.60;99.90
8463;DHT22;4268;52.506;13.462;2022-09-13T08:09:20;16.60;99.90
8463;DHT22;4268;52.506;13.462;2022-09-13T08:11:49;16.80;99.90
8463;DHT22;4268;52.506;13.462;2022-09-13T08:14:18;16.90;99.90
8463;DHT22;4268;52.506;13.462;2022-09-13T08:16:44;17.00;99.90
8463;DHT22;4268;52.506;13.462;2022-09-13T08:19:13;17.00;99.90
8463;DHT22;4268;52.506;13.462;2022-09-13T08:21:40;17.10;99.90
8463;DHT22;4268;52.506;13.462;2022-09-13T08:24:10;17.30;99.90
8463;DHT22;4268;52.506;13.462;2022-09-13T08:26:37;17.50;99.90
8463;DHT22;4268;52.506;13.462;2022-09-13T08:29:04;17.70;99.90
8463;DHT22;4268;52.506;13.462;2022-09-13T08:31:30;17.80;99.90
8463;DHT22;4268;52.506;13.462;2022-09-13T08:33:56;17.90;99.90
8463;DHT22;4268;52.506;13.462;2022-09-13T08:36:24;18.00;99.90
8463;DHT22;4268;52.506;13.462;2022-09-13T08:38:54;18.00;99.90
8463;DHT22;4268;52.506;13.462;2022-09-13T08:44:03;18.00;99.90
8463;DHT22;4268;52.506;13.462;2022-09-13T08:46:36;17.90;99.90
8463;DHT22;4268;52.506;13.462;2022-09-13T08:49:07;17.90;99.90
8463;DHT22;4268;52.506;13.462;2022-09-13T08:51:40;18.00;99.90
8463;DHT22;4268;52.506;13.462;2022-09-13T08:54:14;18.10;99.90
8463;DHT22;4268;52.506;13.462;2022-09-13T08:57:18;18.20;99.90
8463;DHT22;4268;52.506;13.462;2022-09-13T09:00:03;18.40;99.90
8463;DHT22;4268;52.506;13.462;2022-09-13T09:05:24;18.90;99.90
8463;DHT22;4268;52.506;13.462;2022-09-13T09:07:56;19.00;99.90
8463;DHT22;4268;52.506;13.462;2022-09-13T09:10:36;19.10;99.90
8463;DHT22;4268;52.506;13.462;2022-09-13T09:18:58;19.10;99.90
8463;DHT22;4268;52.506;13.462;2022-09-13T09:21:26;19.00;99.90
8463;DHT22;4268;52.506;13.462;2022-09-13T09:23:53;19.00;99.90
8463;DHT22;4268;52.506;13.462;2022-09-13T09:26:20;19.00;99.90
8463;DHT22;4268;52.506;13.462;2022-09-13T09:28:53;19.10;99.90
8463;DHT22;4268;52.506;13.462;2022-09-13T09:31:25;19.20;99.90
8463;DHT22;4268;52.506;13.462;2022-09-13T09:34:07;19.50;99.90
8463;DHT22;4268;52.506;13.462;2022-09-13T09:36:47;19.80;99.90
8463;DHT22;4268;52.506;13.462;2022-09-13T09:39:14;19.90;99.90
8463;DHT22;4268;52.506;13.462;2022-09-13T09:41:42;19.90;99.90
8463;DHT22;4268;52.506;13.462;2022-09-13T09:44:18;19.80;99.90
8463;DHT22;4268;52.506;13.462;2022-09-13T09:46:48;19.80;99.90
8463;DHT22;4268;52.506;13.462;2022-09-13T09:49:36;19.70;99.90
8463;DHT22;4268;52.506;13.462;2022-09-13T09:52:27;19.80;99.90
8463;DHT22;4268;52.506;13.462;2022-09-13T09:54:59;20.00;99.90
8463;DHT22;4268;52.506;13.462;2022-09-13T09:57:51;20.20;99.90
8463;DHT22;4268;52.506;13.462;2022-09-13T10:00:17;20.30;99.90
8463;DHT22;4268;52.506;13.462;2022-09-13T10:02:43;20.60;99.90
8463;DHT22;4268;52.506;13.462;2022-09-13T10:05:10;20.80;99.90
8463;DHT22;4268;52.506;13.462;2022-09-13T10:07:37;20.90;99.90
8463;DHT22;4268;52.506;13.462;2022-09-13T10:10:22;20.90;99.90
8463;DHT22;4268;52.506;13.462;2022-09-13T10:12:52;20.90;99.90
8463;DHT22;4268;52.506;13.462;2022-09-13T10:15:19;20.90;99.90
8463;DHT22;4268;52.506;13.462;2022-09-13T10:18:24;21.10;99.90
8463;DHT22;4268;52.506;13.462;2022-09-13T10:23:47;21.00;99.90
8463;DHT22;4268;52.506;13.462;2022-09-13T10:26:20;21.10;99.90
8463;DHT22;4268;52.506;13.462;2022-09-13T10:29:05;21.20;99.90
8463;DHT22;4268;52.506;13.462;2022-09-13T10:31:40;21.30;99.90
8463;DHT22;4268;52.506;13.462;2022-09-13T10:34:14;21.30;99.90
8463;DHT22;4268;52.506;13.462;2022-09-13T10:37:02;21.30;99.90
8463;DHT22;4268;52.506;13.462;2022-09-13T10:39:31;21.20;99.90
8463;DHT22;4268;52.506;13.462;2022-09-13T10:42:07;21.30;99.90
8463;DHT22;4268;52.506;13.462;2022-09-13T10:45:05;21.50;99.90
8463;DHT22;4268;52.506;13.462;2022-09-13T10:47:50;21.50;99.90
8463;DHT22;4268;52.506;13.462;2022-09-13T10:50:23;21.40;99.90
8463;DHT22;4268;52.506;13.462;2022-09-13T10:52:57;21.30;99.90
8463;DHT22;4268;52.506;13.462;2022-09-13T10:58:12;21.40;99.90
8463;DHT22;4268;52.506;13.462;2022-09-13T11:00:47;21.40;99.90
8463;DHT22;4268;52.506;13.462;2022-09-13T11:03:40;21.30;99.90
8463;DHT22;4268;52.506;13.462;2022-09-13T11:09:23;20.90;99.90
8463;DHT22;4268;52.506;13.462;2022-09-13T11:12:22;20.70;99.90
8463;DHT22;4268;52.506;13.462;2022-09-13T11:15:11;20.50;99.90
8463;DHT22;4268;52.506;13.462;2022-09-13T11:18:03;20.40;99.90
8463;DHT22;4268;52.506;13.462;2022-09-13T11:21:11;20.40;99.90
8463;DHT22;4268;52.506;13.462;2022-09-13T11:26:38;20.30;99.90
8463;DHT22;4268;52.506;13.462;2022-09-13T11:29:18;20.20;99.90
8463;DHT22;4268;52.506;13.462;2022-09-13T11:32:05;20.10;99.90
8463;DHT22;4268;52.506;13.462;2022-09-13T11:43:02;19.90;99.90
8463;DHT22;4268;52.506;13.462;2022-09-13T11:45:34;19.90;99.90
8463;DHT22;4268;52.506;13.462;2022-09-13T11:51:34;19.80;99.90
8463;DHT22;4268;52.506;13.462;2022-09-13T11:54:32;19.80;99.90
8463;DHT22;4268;52.506;13.462;2022-09-13T11:57:07;19.90;99.90
8463;DHT22;4268;52.506;13.462;2022-09-13T11:59:39;19.90;99.90
8463;DHT22;4268;52.506;13.462;2022-09-13T12:02:28;19.80;99.90
8463;DHT22;4268;52.506;13.462;2022-09-13T12:05:23;19.90;99.90
8463;DHT22;4268;52.506;13.462;2022-09-13T12:08:00;19.90;99.90
8463;DHT22;4268;52.506;13.462;2022-09-13T12:10:46;19.90;99.90
8463;DHT22;4268;52.506;13.462;2022-09-13T12:13:23;19.90;99.90
8463;DHT22;4268;52.506;13.462;2022-09-13T12:15:53;19.80;99.90
8463;DHT22;4268;52.506;13.462;2022-09-13T12:20:51;19.90;99.90
8463;DHT22;4268;52.506;13.462;2022-09-13T12:23:30;19.90;99.90
8463;DHT22;4268;52.506;13.462;2022-09-13T12:28:45;19.80;99.90
8463;DHT22;4268;52.506;13.462;2022-09-13T12:31:19;19.80;99.90
8463;DHT22;4268;52.506;13.462;2022-09-13T12:33:46;19.80;99.90
8463;DHT22;4268;52.506;13.462;2022-09-13T12:44:37;19.50;99.90
8463;DHT22;4268;52.506;13.462;2022-09-13T12:55:37;19.50;99.90
8463;DHT22;4268;52.506;13.462;2022-09-13T12:58:41;19.60;99.90
8463;DHT22;4268;52.506;13.462;2022-09-13T13:01:29;19.60;99.90
8463;DHT22;4268;52.506;13.462;2022-09-13T13:04:07;19.70;99.90
8463;DHT22;4268;52.506;13.462;2022-09-13T13:06:38;19.70;99.90
8463;DHT22;4268;52.506;13.462;2022-09-13T13:11:54;19.70;99.90
8463;DHT22;4268;52.506;13.462;2022-09-13T13:14:43;19.80;99.90
8463;DHT22;4268;52.506;13.462;2022-09-13T13:17:35;20.00;99.90
8463;DHT22;4268;52.506;13.462;2022-09-13T13:20:40;20.20;99.90
8463;DHT22;4268;52.506;13.462;2022-09-13T13:23:30;20.20;99.90
8463;DHT22;4268;52.506;13.462;2022-09-13T13:36:22;19.80;99.90
8463;DHT22;4268;52.506;13.462;2022-09-13T13:38:50;19.80;99.90
8463;DHT22;4268;52.506;13.462;2022-09-13T13:46:45;19.70;99.90
8463;DHT22;4268;52.506;13.462;2022-09-13T13:59:56;20.20;99.90
8463;DHT22;4268;52.506;13.462;2022-09-13T14:02:39;20.20;99.90
8463;DHT22;4268;52.506;13.462;2022-09-13T14:16:58;20.60;99.90
8463;DHT22;4268;52.506;13.462;2022-09-13T14:19:30;20.70;99.90
8463;DHT22;4268;52.506;13.462;2022-09-13T14:24:56;20.90;99.90
8463;DHT22;4268;52.506;13.462;2022-09-13T14:27:32;20.90;99.90
8463;DHT22;4268;52.506;13.462;2022-09-13T14:30:03;20.90;99.90
8463;DHT22;4268;52.506;13.462;2022-09-13T14:32:42;20.90;99.90
8463;DHT22;4268;52.506;13.462;2022-09-13T14:35:29;20.90;99.90
8463;DHT22;4268;52.506;13.462;2022-09-13T14:38:08;20.90;99.90
8463;DHT22;4268;52.506;13.462;2022-09-13T14:40:34;20.90;99.90
8463;DHT22;4268;52.506;13.462;2022-09-13T14:42:59;20.90;99.90
8463;DHT22;4268;52.506;13.462;2022-09-13T14:45:29;20.90;99.90
8463;DHT22;4268;52.506;13.462;2022-09-13T14:48:20;20.90;99.90
8463;DHT22;4268;52.506;13.462;2022-09-13T14:50:54;20.80;99.90
8463;DHT22;4268;52.506;13.462;2022-09-13T14:53:24;20.80;99.90
8463;DHT22;4268;52.506;13.462;2022-09-13T14:56:02;20.70;99.90
8463;DHT22;4268;52.506;13.462;2022-09-13T14:58:43;20.70;99.90
8463;DHT22;4268;52.506;13.462;2022-09-13T15:01:12;20.70;99.90
8463;DHT22;4268;52.506;13.462;2022-09-13T15:03:43;20.60;99.90
8463;DHT22;4268;52.506;13.462;2022-09-13T15:06:37;20.60;99.90
8463;DHT22;4268;52.506;13.462;2022-09-13T15:11:58;20.60;99.90
8463;DHT22;4268;52.506;13.462;2022-09-13T15:14:33;20.70;99.90
8463;DHT22;4268;52.506;13.462;2022-09-13T15:17:09;20.70;99.90
8463;DHT22;4268;52.506;13.462;2022-09-13T15:19:36;20.80;99.90
8463;DHT22;4268;52.506;13.462;2022-09-13T15:22:17;20.80;99.90
8463;DHT22;4268;52.506;13.462;2022-09-13T15:24:46;20.80;99.90
8463;DHT22;4268;52.506;13.462;2022-09-13T15:27:42;20.80;99.90
8463;DHT22;4268;52.506;13.462;2022-09-13T15:30:29;20.70;99.90
8463;DHT22;4268;52.506;13.462;2022-09-13T15:35:40;20.70;99.90
8463;DHT22;4268;52.506;13.462;2022-09-13T15:38:24;20.60;99.90
8463;DHT22;4268;52.506;13.462;2022-09-13T15:43:27;20.30;99.90
8463;DHT22;4268;52.506;13.462;2022-09-13T15:45:55;20.20;99.90
8463;DHT22;4268;52.506;13.462;2022-09-13T15:48:27;20.20;99.90
8463;DHT22;4268;52.506;13.462;2022-09-13T15:51:11;20.10;99.90
8463;DHT22;4268;52.506;13.462;2022-09-13T15:53:38;20.10;99.90
8463;DHT22;4268;52.506;13.462;2022-09-13T15:56:05;20.00;99.90
8463;DHT22;4268;52.506;13.462;2022-09-13T15:58:32;20.00;99.90
8463;DHT22;4268;52.506;13.462;2022-09-13T16:00:58;20.00;99.90
8463;DHT22;4268;52.506;13.462;2022-09-13T16:03:24;19.90;99.90
8463;DHT22;4268;52.506;13.462;2022-09-13T16:05:50;19.80;99.90
8463;DHT22;4268;52.506;13.462;2022-09-13T16:08:15;19.70;99.90
8463;DHT22;4268;52.506;13.462;2022-09-13T16:10:41;19.70;99.90
8463;DHT22;4268;52.506;13.462;2022-09-13T16:13:07;19.60;99.90
8463;DHT22;4268;52.506;13.462;2022-09-13T16:15:33;19.60;99.90
8463;DHT22;4268;52.506;13.462;2022-09-13T16:17:58;19.40;99.90
8463;DHT22;4268;52.506;13.462;2022-09-13T16:20:24;19.40;99.90
8463;DHT22;4268;52.506;13.462;2022-09-13T16:22:52;19.40;99.90
8463;DHT22;4268;52.506;13.462;2022-09-13T16:25:18;19.40;99.90
8463;DHT22;4268;52.506;13.462;2022-09-13T16:27:44;19.30;99.90
8463;DHT22;4268;52.506;13.462;2022-09-13T16:30:13;19.30;99.90
8463;DHT22;4268;52.506;13.462;2022-09-13T16:32:39;19.20;99.90
8463;DHT22;4268;52.506;13.462;2022-09-13T16:35:06;19.20;99.90
8463;DHT22;4268;52.506;13.462;2022-09-13T16:37:35;19.10;99.90
8463;DHT22;4268;52.506;13.462;2022-09-13T16:40:01;19.10;99.90
8463;DHT22;4268;52.506;13.462;2022-09-13T16:42:26;19.10;99.90
8463;DHT22;4268;52.506;13.462;2022-09-13T16:44:52;19.10;99.90
8463;DHT22;4268;52.506;13.462;2022-09-13T16:47:17;19.10;99.90
8463;DHT22;4268;52.506;13.462;2022-09-13T16:49:43;19.00;99.90
8463;DHT22;4268;52.506;13.462;2022-09-13T16:52:09;19.00;99.90
8463;DHT22;4268;52.506;13.462;2022-09-13T16:54:35;19.00;99.90
8463;DHT22;4268;52.506;13.462;2022-09-13T16:57:01;19.00;99.90
8463;DHT22;4268;52.506;13.462;2022-09-13T16:59:28;19.00;99.90
8463;DHT22;4268;52.506;13.462;2022-09-13T17:01:54;18.90;99.90
8463;DHT22;4268;52.506;13.462;2022-09-13T17:04:19;18.90;99.90
8463;DHT22;4268;52.506;13.462;2022-09-13T17:06:45;18.90;99.90
8463;DHT22;4268;52.506;13.462;2022-09-13T17:09:10;18.80;99.90
8463;DHT22;4268;52.506;13.462;2022-09-13T17:11:38;18.80;99.90
8463;DHT22;4268;52.506;13.462;2022-09-13T17:14:07;18.80;99.90
8463;DHT22;4268;52.506;13.462;2022-09-13T17:16:39;18.70;99.90
8463;DHT22;4268;52.506;13.462;2022-09-13T17:19:08;18.70;99.90
8463;DHT22;4268;52.506;13.462;2022-09-13T17:21:35;18.60;99.90
8463;DHT22;4268;52.506;13.462;2022-09-13T17:24:01;18.60;99.90
8463;DHT22;4268;52.506;13.462;2022-09-13T17:26:27;18.60;99.90
8463;DHT22;4268;52.506;13.462;2022-09-13T17:28:53;18.60;99.90
8463;DHT22;4268;52.506;13.462;2022-09-13T17:31:19;18.50;99.90
8463;DHT22;4268;52.506;13.462;2022-09-13T17:33:44;18.50;99.90
8463;DHT22;4268;52.506;13.462;2022-09-13T17:36:12;18.40;99.90
8463;DHT22;4268;52.506;13.462;2022-09-13T17:38:38;18.40;99.90
8463;DHT22;4268;52.506;13.462;2022-09-13T17:41:07;18.40;99.90
8463;DHT22;4268;52.506;13.462;2022-09-13T17:43:34;18.40;99.90
8463;DHT22;4268;52.506;13.462;2022-09-13T17:46:07;18.40;99.90
8463;DHT22;4268;52.506;13.462;2022-09-13T17:48:34;18.40;99.90
8463;DHT22;4268;52.506;13.462;2022-09-13T17:51:04;18.40;99.90
8463;DHT22;4268;52.506;13.462;2022-09-13T17:53:30;18.40;99.90
8463;DHT22;4268;52.506;13.462;2022-09-13T17:55:56;18.30;99.90
8463;DHT22;4268;52.506;13.462;2022-09-13T17:58:25;18.30;99.90
8463;DHT22;4268;52.506;13.462;2022-09-13T18:01:06;18.20;99.90
8463;DHT22;4268;52.506;13.462;2022-09-13T18:03:32;18.20;99.90
8463;DHT22;4268;52.506;13.462;2022-09-13T18:05:59;17.30;99.90
8463;DHT22;4268;52.506;13.462;2022-09-13T18:08:26;18.20;99.90
8463;DHT22;4268;52.506;13.462;2022-09-13T18:10:51;18.20;99.90
8463;DHT22;4268;52.506;13.462;2022-09-13T18:13:17;18.10;99.90
8463;DHT22;4268;52.506;13.462;2022-09-13T18:15:44;18.20;99.90
8463;DHT22;4268;52.506;13.462;2022-09-13T18:18:13;18.10;99.90
8463;DHT22;4268;52.506;13.462;2022-09-13T18:20:43;18.10;99.90
8463;DHT22;4268;52.506;13.462;2022-09-13T18:23:09;18.10;99.90
8463;DHT22;4268;52.506;13.462;2022-09-13T18:25:34;18.00;99.90
8463;DHT22;4268;52.506;13.462;2022-09-13T18:28:00;18.00;99.90
8463;DHT22;4268;52.506;13.462;2022-09-13T18:30:25;18.00;99.90